Time;durP1;ratioP1;P1;durP2;ratioP2;P2;SDS_P1;SDS_P2;PMS_P1;PMS_P2;Temp;Humidity;BMP_temperature;BMP_pressure;BME280_temperature;BME280_humidity;BME280_pressure;Samples;Min_cycle;Max_cycle;Signal;HPM_P1;HPM_P2
2022/01/05 00:00:42;;;;;;;5.75;1.60;;;;;;;-143.35;100.00;58682.94;5014479;28;20465;-49
2022/01/05 00:03:09;;;;;;;6.95;2.35;;;;;;;-143.35;100.00;58682.94;5014599;28;20116;-48
2022/01/05 00:05:35;;;;;;;9.35;2.83;;;;;;;-143.35;100.00;58682.94;5013229;28;20022;-48
2022/01/05 00:08:00;;;;;;;8.00;1.85;;;;;;;-143.35;100.00;58682.94;5014485;28;20051;-48
2022/01/05 00:10:25;;;;;;;4.78;2.20;;;;;;;-143.35;100.00;58682.94;5014276;28;20037;-48
2022/01/05 00:12:51;;;;;;;6.68;1.80;;;;;;;-143.35;100.00;58682.94;5014326;28;20033;-48
2022/01/05 00:15:17;;;;;;;6.88;1.85;;;;;;;-143.35;100.00;58682.94;5014418;28;20091;-48
2022/01/05 00:17:43;;;;;;;8.82;2.42;;;;;;;-143.35;100.00;58682.94;5014271;28;20396;-49
2022/01/05 00:20:09;;;;;;;8.38;2.28;;;;;;;-143.35;100.00;58682.94;5014250;28;20030;-48
2022/01/05 00:22:35;;;;;;;7.43;2.10;;;;;;;-143.35;100.00;58682.94;5014214;28;20548;-48
2022/01/05 00:25:00;;;;;;;11.45;1.92;;;;;;;-143.35;100.00;58682.94;5014271;28;20045;-48
2022/01/05 00:27:26;;;;;;;14.85;2.55;;;;;;;-143.35;100.00;58682.94;5014328;28;20152;-49
2022/01/05 00:29:51;;;;;;;8.00;1.83;;;;;;;-143.35;100.00;58682.94;5014108;28;20037;-49
2022/01/05 00:32:16;;;;;;;6.40;2.25;;;;;;;-143.35;100.00;58682.94;5014187;28;20053;-50
2022/01/05 00:34:42;;;;;;;11.05;2.38;;;;;;;-143.35;100.00;58682.94;5017516;28;20032;-48
2022/01/05 00:37:07;;;;;;;8.65;2.33;;;;;;;-143.35;100.00;58682.94;5018172;28;20507;-48
2022/01/05 00:39:33;;;;;;;2.67;1.73;;;;;;;-143.35;100.00;58682.94;5018139;28;20049;-48
2022/01/05 00:41:59;;;;;;;7.07;3.05;;;;;;;-143.35;100.00;58682.94;5018097;28;20354;-48
2022/01/05 00:44:24;;;;;;;6.70;1.98;;;;;;;-143.35;100.00;58682.94;5018264;28;20022;-47
2022/01/05 00:46:50;;;;;;;11.18;2.10;;;;;;;-143.35;100.00;58682.94;5017822;28;20112;-49
2022/01/05 00:49:16;;;;;;;5.45;1.70;;;;;;;-143.35;100.00;58682.94;5017909;28;20568;-48
2022/01/05 00:51:41;;;;;;;4.53;1.70;;;;;;;-143.35;100.00;58682.94;5017988;28;20026;-48
2022/01/05 00:54:06;;;;;;;8.10;2.28;;;;;;;-143.35;100.00;58682.94;5017953;28;20029;-47
2022/01/05 00:56:32;;;;;;;12.20;2.22;;;;;;;-143.35;100.00;58682.94;5017878;28;20029;-50
2022/01/05 00:58:58;;;;;;;8.18;1.98;;;;;;;-143.35;100.00;58682.94;5017772;28;20057;-48
2022/01/05 01:01:24;;;;;;;17.27;2.55;;;;;;;-143.35;100.00;58682.94;5017880;28;20026;-47
2022/01/05 01:03:50;;;;;;;7.72;1.65;;;;;;;-143.35;100.00;58682.94;5017625;28;20057;-47
2022/01/05 01:06:15;;;;;;;5.13;1.73;;;;;;;-143.35;100.00;58682.94;5017757;28;20053;-49
2022/01/05 01:08:41;;;;;;;12.23;2.17;;;;;;;-143.35;100.00;58682.94;5017651;28;20028;-48
2022/01/05 01:11:06;;;;;;;5.05;1.98;;;;;;;-143.35;100.00;58682.94;5017528;28;20146;-48
2022/01/05 01:13:32;;;;;;;3.70;1.35;;;;;;;-143.35;100.00;58682.94;5017556;28;20465;-48
2022/01/05 01:15:57;;;;;;;10.35;2.15;;;;;;;-143.35;100.00;58682.94;5017528;28;20113;-47
2022/01/05 01:18:23;;;;;;;6.85;2.08;;;;;;;-143.35;100.00;58682.94;5017422;28;20055;-50
2022/01/05 01:20:48;;;;;;;7.10;1.95;;;;;;;-143.35;100.00;58682.94;5017437;28;20029;-47
2022/01/05 01:23:15;;;;;;;9.45;2.05;;;;;;;-143.35;100.00;58682.94;5017815;28;20175;-47
2022/01/05 01:25:40;;;;;;;2.83;1.40;;;;;;;-143.35;100.00;58682.94;5017793;28;20030;-47
2022/01/05 01:28:06;;;;;;;5.32;1.85;;;;;;;-143.35;100.00;58682.94;5017796;28;20026;-48
2022/01/05 01:30:32;;;;;;;5.55;1.50;;;;;;;-143.35;100.00;58682.94;5018177;28;20037;-47
2022/01/05 01:32:58;;;;;;;4.88;1.83;;;;;;;-143.35;100.00;58682.94;5017678;28;20404;-47
2022/01/05 01:35:25;;;;;;;12.38;1.88;;;;;;;-143.35;100.00;58682.94;5017384;28;20085;-46
2022/01/05 01:37:51;;;;;;;11.95;1.83;;;;;;;-143.35;100.00;58682.94;5017275;28;20026;-46
2022/01/05 01:40:16;;;;;;;10.93;1.80;;;;;;;-143.35;100.00;58682.94;5017104;28;20487;-47
2022/01/05 01:42:41;;;;;;;14.68;2.55;;;;;;;-143.35;100.00;58682.94;5017133;28;20384;-47
2022/01/05 01:45:07;;;;;;;7.70;2.15;;;;;;;-143.35;100.00;58682.94;5015162;28;20030;-47
2022/01/05 01:47:33;;;;;;;11.00;2.25;;;;;;;-143.35;100.00;58682.94;5016758;28;20068;-48
2022/01/05 01:49:58;;;;;;;12.73;2.03;;;;;;;-143.35;100.00;58682.94;5016908;28;20057;-47
2022/01/05 01:52:23;;;;;;;10.82;2.22;;;;;;;-143.35;100.00;58682.94;5016844;28;20033;-47
2022/01/05 01:54:51;;;;;;;13.35;2.92;;;;;;;-143.35;100.00;58682.94;5016857;28;20022;-47
2022/01/05 01:57:19;;;;;;;6.53;2.03;;;;;;;-143.35;100.00;58682.94;5016635;28;20108;-47
2022/01/05 01:59:45;;;;;;;10.25;2.25;;;;;;;-143.35;100.00;58682.94;5016735;28;20033;-47
2022/01/05 02:02:11;;;;;;;8.27;1.88;;;;;;;-143.35;100.00;58682.94;5016609;28;20030;-46
2022/01/05 02:04:39;;;;;;;7.55;1.85;;;;;;;-143.35;100.00;58682.94;5016689;28;20465;-47
2022/01/05 02:07:05;;;;;;;6.53;2.05;;;;;;;-143.35;100.00;58682.94;5016590;28;20105;-47
2022/01/05 02:09:30;;;;;;;10.07;1.70;;;;;;;-143.35;100.00;58682.94;5016402;28;20105;-47
2022/01/05 02:11:56;;;;;;;16.00;2.05;;;;;;;-143.35;100.00;58682.94;5016463;28;20030;-47
2022/01/05 02:14:21;;;;;;;14.57;2.28;;;;;;;-143.35;100.00;58682.94;5016468;28;20029;-47
2022/01/05 02:16:47;;;;;;;5.10;2.20;;;;;;;-143.35;100.00;58682.94;5016376;28;20029;-47
2022/01/05 02:19:13;;;;;;;7.32;1.60;;;;;;;-143.35;100.00;58682.94;5016306;28;20064;-47
2022/01/05 02:21:39;;;;;;;6.78;1.75;;;;;;;-143.35;100.00;58682.94;5021060;28;20444;-48
2022/01/05 02:24:06;;;;;;;6.93;1.52;;;;;;;-143.35;100.00;58682.94;5016302;28;20030;-50
2022/01/05 02:26:33;;;;;;;15.85;2.35;;;;;;;-143.35;100.00;58682.94;5015812;28;20073;-47
2022/01/05 02:28:58;;;;;;;5.88;2.60;;;;;;;-143.35;100.00;58682.94;5016092;28;20040;-47
2022/01/05 02:31:24;;;;;;;15.07;2.22;;;;;;;-143.35;100.00;58682.94;5016173;28;20110;-48
2022/01/05 02:33:49;;;;;;;5.38;1.33;;;;;;;-143.35;100.00;58682.94;4996856;28;20033;-49
2022/01/05 02:36:19;;;;;;;3.65;1.52;;;;;;;-143.35;100.00;58682.94;4996490;28;20030;-50
2022/01/05 02:38:45;;;;;;;7.45;2.17;;;;;;;-143.35;100.00;58682.94;4996357;28;20457;-47
2022/01/05 02:41:11;;;;;;;7.97;1.60;;;;;;;-143.35;100.00;58682.94;4996369;28;20489;-48
2022/01/05 02:43:39;;;;;;;9.27;2.60;;;;;;;-143.35;100.00;58682.94;4999123;28;20045;-47
2022/01/05 02:46:09;;;;;;;6.13;1.98;;;;;;;-143.35;100.00;58682.94;4996373;28;20069;-48
2022/01/05 02:48:34;;;;;;;5.03;1.70;;;;;;;-143.35;100.00;58682.94;4996033;28;20050;-47
2022/01/05 02:50:59;;;;;;;6.35;1.95;;;;;;;-143.35;100.00;58682.94;4996266;28;20038;-47
2022/01/05 02:53:25;;;;;;;8.00;1.30;;;;;;;-143.35;100.00;58682.94;5011233;28;20108;-48
2022/01/05 02:55:51;;;;;;;10.35;1.80;;;;;;;-143.35;100.00;58682.94;5015665;28;20025;-47
2022/01/05 02:58:17;;;;;;;5.75;1.80;;;;;;;-143.35;100.00;58682.94;5014553;28;20052;-49
2022/01/05 03:00:43;;;;;;;9.73;2.42;;;;;;;-143.35;100.00;58682.94;5008501;28;20488;-47
2022/01/05 03:03:08;;;;;;;8.07;1.77;;;;;;;-143.35;100.00;58682.94;4995934;28;20438;-49
2022/01/05 03:05:34;;;;;;;6.30;1.92;;;;;;;-143.35;100.00;58682.94;4995833;28;20080;-49
2022/01/05 03:07:59;;;;;;;10.23;1.92;;;;;;;-143.35;100.00;58682.94;4996086;28;20109;-48
2022/01/05 03:10:25;;;;;;;2.97;1.77;;;;;;;-143.35;100.00;58682.94;4999510;28;20095;-47
2022/01/05 03:12:50;;;;;;;12.15;2.72;;;;;;;-143.35;100.00;58682.94;5015479;28;20029;-49
2022/01/05 03:15:16;;;;;;;5.05;2.42;;;;;;;-143.35;100.00;58682.94;5015490;28;20084;-49
2022/01/05 03:17:42;;;;;;;3.60;1.95;;;;;;;-143.35;100.00;58682.94;5025993;28;20072;-50
2022/01/05 03:20:09;;;;;;;5.97;2.05;;;;;;;-143.35;100.00;58682.94;4995646;28;20026;-48
2022/01/05 03:22:35;;;;;;;5.05;1.52;;;;;;;-143.35;100.00;58682.94;4995571;28;20548;-49
2022/01/05 03:25:01;;;;;;;6.63;2.03;;;;;;;-143.35;100.00;58682.94;4995624;28;20057;-47
2022/01/05 03:27:26;;;;;;;4.15;1.77;;;;;;;-143.35;100.00;58682.94;5006236;28;20488;-49
2022/01/05 03:29:52;;;;;;;10.68;1.98;;;;;;;-143.35;100.00;58682.94;4995603;28;20030;-48
2022/01/05 03:32:17;;;;;;;7.22;2.50;;;;;;;-143.35;100.00;58682.94;4995494;28;20026;-48
2022/01/05 03:34:44;;;;;;;6.95;2.22;;;;;;;-143.35;100.00;58682.94;4995387;28;20022;-47
2022/01/05 03:37:10;;;;;;;4.30;1.75;;;;;;;-143.35;100.00;58682.94;4995687;28;20030;-49
2022/01/05 03:39:35;;;;;;;12.82;2.60;;;;;;;-143.35;100.00;58682.94;4995196;28;20106;-49
2022/01/05 03:42:01;;;;;;;8.85;2.70;;;;;;;-143.35;100.00;58682.94;4995224;28;20052;-48
2022/01/05 03:44:27;;;;;;;6.63;1.80;;;;;;;-143.35;100.00;58682.94;4995242;28;20042;-48
2022/01/05 03:46:52;;;;;;;5.60;2.15;;;;;;;-143.35;100.00;58682.94;5006672;23;20403;-48
2022/01/05 03:49:18;;;;;;;13.15;3.33;;;;;;;-143.35;100.00;58682.94;5014756;28;20030;-47
2022/01/05 03:51:45;;;;;;;7.40;2.35;;;;;;;-143.35;100.00;58682.94;5014073;28;20088;-48
2022/01/05 03:54:11;;;;;;;10.85;2.50;;;;;;;-143.35;100.00;58682.94;5014740;28;20036;-50
2022/01/05 03:56:36;;;;;;;10.82;2.90;;;;;;;-143.35;100.00;58682.94;5014676;28;20527;-47
2022/01/05 03:59:01;;;;;;;17.25;3.20;;;;;;;-143.35;100.00;58682.94;5014540;28;20079;-50
2022/01/05 04:01:27;;;;;;;14.27;2.80;;;;;;;-143.35;100.00;58682.94;5014300;28;20033;-47
2022/01/05 04:03:52;;;;;;;11.45;2.92;;;;;;;-143.35;100.00;58682.94;5014727;28;20417;-49
2022/01/05 04:06:17;;;;;;;20.23;2.88;;;;;;;-143.35;100.00;58682.94;5009913;28;20133;-50
2022/01/05 04:08:42;;;;;;;5.80;2.30;;;;;;;-143.35;100.00;58682.94;4994727;28;20030;-47
2022/01/05 04:11:08;;;;;;;12.50;2.30;;;;;;;-143.35;100.00;58682.94;4994837;28;20465;-47
2022/01/05 04:13:33;;;;;;;8.13;2.60;;;;;;;-143.35;100.00;58682.94;4994815;28;20117;-50
2022/01/05 04:15:59;;;;;;;15.63;2.70;;;;;;;-143.35;100.00;58682.94;4995695;28;20148;-48
2022/01/05 04:18:24;;;;;;;13.27;2.90;;;;;;;-143.35;100.00;58682.94;4994886;28;20026;-51
2022/01/05 04:20:49;;;;;;;15.43;3.15;;;;;;;-143.35;100.00;58682.94;4993541;28;20120;-49
2022/01/05 04:23:15;;;;;;;8.38;2.65;;;;;;;-143.35;100.00;58682.94;4996797;28;20037;-46
2022/01/05 04:25:40;;;;;;;12.20;2.67;;;;;;;-143.35;100.00;58682.94;4994705;28;20120;-48
2022/01/05 04:28:05;;;;;;;16.52;2.72;;;;;;;-143.35;100.00;58682.94;4994594;28;20022;-48
2022/01/05 04:30:33;;;;;;;13.60;3.20;;;;;;;-143.35;100.00;58682.94;4994612;28;20061;-47
2022/01/05 04:32:59;;;;;;;21.73;3.22;;;;;;;-143.35;100.00;58682.94;4996876;28;20060;-47
2022/01/05 04:35:24;;;;;;;22.95;3.58;;;;;;;-143.35;100.00;58682.94;5013763;28;20423;-48
2022/01/05 04:37:49;;;;;;;16.02;2.55;;;;;;;-143.35;100.00;58682.94;5014097;28;20461;-48
2022/01/05 04:40:15;;;;;;;13.43;3.05;;;;;;;-143.35;100.00;58682.94;5011507;28;20030;-48
2022/01/05 04:42:40;;;;;;;9.98;2.22;;;;;;;-143.35;100.00;58682.94;5014103;28;20440;-47
2022/01/05 04:45:06;;;;;;;11.10;2.58;;;;;;;-143.35;100.00;58682.94;5014230;28;20045;-46
2022/01/05 04:47:32;;;;;;;10.13;2.25;;;;;;;-143.35;100.00;58682.94;5014105;28;20053;-46
2022/01/05 04:49:58;;;;;;;11.13;3.03;;;;;;;-143.35;100.00;58682.94;5010246;28;20022;-47
2022/01/05 04:52:23;;;;;;;8.85;2.20;;;;;;;-143.35;100.00;58682.94;4994473;28;20027;-47
2022/01/05 04:54:48;;;;;;;10.05;2.15;;;;;;;-143.35;100.00;58682.94;4994360;28;20035;-49
2022/01/05 04:57:15;;;;;;;20.25;3.10;;;;;;;-143.35;100.00;58682.94;4994369;28;20034;-48
2022/01/05 04:59:40;;;;;;;14.35;2.83;;;;;;;-143.35;100.00;58682.94;4994516;28;20060;-50
2022/01/05 05:02:06;;;;;;;14.90;3.33;;;;;;;-143.35;100.00;58682.94;4994337;28;20117;-50
2022/01/05 05:04:31;;;;;;;17.90;3.05;;;;;;;-143.35;100.00;58682.94;4994316;28;20050;-48
2022/01/05 05:06:57;;;;;;;10.52;2.88;;;;;;;-143.35;100.00;58682.94;4994369;28;20030;-48
2022/01/05 05:09:22;;;;;;;17.45;2.55;;;;;;;-143.35;100.00;58682.94;4994888;28;20381;-48
2022/01/05 05:11:47;;;;;;;13.27;2.90;;;;;;;-143.35;100.00;58682.94;5013880;28;20109;-47
2022/01/05 05:14:13;;;;;;;14.82;2.95;;;;;;;-143.35;100.00;58682.94;5013848;28;20088;-50
2022/01/05 05:16:38;;;;;;;13.60;2.58;;;;;;;-143.35;100.00;58682.94;5013721;28;20483;-48
2022/01/05 05:19:04;;;;;;;12.35;2.17;;;;;;;-143.35;100.00;58682.94;5013826;28;20475;-50
2022/01/05 05:21:29;;;;;;;12.10;2.75;;;;;;;-143.35;100.00;58682.94;4998333;28;20117;-48
2022/01/05 05:23:54;;;;;;;12.38;2.78;;;;;;;-143.35;100.00;58682.94;5008510;28;20036;-47
2022/01/05 05:26:20;;;;;;;12.52;3.03;;;;;;;-143.35;100.00;58682.94;5017411;28;20439;-48
2022/01/05 05:28:45;;;;;;;12.43;2.58;;;;;;;-143.35;100.00;58682.94;5017304;28;20065;-48
2022/01/05 05:31:10;;;;;;;11.05;3.03;;;;;;;-143.35;100.00;58682.94;5016891;28;20022;-48
2022/01/05 05:33:36;;;;;;;11.45;2.50;;;;;;;-143.35;100.00;58682.94;5017235;28;20029;-49
2022/01/05 05:36:02;;;;;;;9.52;2.78;;;;;;;-143.35;100.00;58682.94;5017255;28;20025;-47
2022/01/05 05:38:28;;;;;;;10.50;2.30;;;;;;;-143.35;100.00;58682.94;5017032;28;20030;-48
2022/01/05 05:40:53;;;;;;;18.48;4.05;;;;;;;-143.35;100.00;58682.94;5001889;28;20037;-47
2022/01/05 05:43:19;;;;;;;9.82;2.28;;;;;;;-143.35;100.00;58682.94;4997512;28;20034;-48
2022/01/05 05:45:44;;;;;;;7.93;2.15;;;;;;;-143.35;100.00;58682.94;5005254;28;20052;-48
2022/01/05 05:48:09;;;;;;;8.00;3.65;;;;;;;-143.35;100.00;58682.94;5008486;28;20043;-48
2022/01/05 05:50:35;;;;;;;7.13;2.38;;;;;;;-143.35;100.00;58682.94;4997334;28;20030;-47
2022/01/05 05:53:00;;;;;;;11.18;2.33;;;;;;;-143.35;100.00;58682.94;4997314;28;20026;-48
2022/01/05 05:55:26;;;;;;;9.98;3.13;;;;;;;-143.35;100.00;58682.94;4997120;28;20034;-50
2022/01/05 05:57:51;;;;;;;10.75;2.38;;;;;;;-143.35;100.00;58682.94;5001649;28;20037;-47
2022/01/05 06:00:17;;;;;;;9.52;2.72;;;;;;;-143.35;100.00;58682.94;5016847;28;20018;-47
2022/01/05 06:02:43;;;;;;;11.63;2.80;;;;;;;-143.35;100.00;58682.94;5016851;28;20084;-47
2022/01/05 06:05:08;;;;;;;9.02;1.90;;;;;;;-143.35;100.00;58682.94;5016142;28;20550;-47
2022/01/05 06:07:34;;;;;;;13.32;2.38;;;;;;;-143.35;100.00;58682.94;5017854;28;20022;-47
2022/01/05 06:10:00;;;;;;;11.13;2.72;;;;;;;-143.35;100.00;58682.94;5016890;28;20117;-48
2022/01/05 06:12:26;;;;;;;10.18;2.63;;;;;;;-143.35;100.00;58682.94;5015586;28;20104;-48
2022/01/05 06:14:51;;;;;;;12.60;2.90;;;;;;;-143.35;100.00;58682.94;4997110;28;20030;-48
2022/01/05 06:17:16;;;;;;;9.82;2.08;;;;;;;-143.35;100.00;58682.94;4996823;28;20026;-48
2022/01/05 06:19:42;;;;;;;11.80;2.38;;;;;;;-143.35;100.00;58682.94;4996842;28;20015;-48
2022/01/05 06:22:07;;;;;;;10.90;2.17;;;;;;;-143.35;100.00;58682.94;4996788;28;20030;-48
2022/01/05 06:24:34;;;;;;;11.55;3.15;;;;;;;-143.35;100.00;58682.94;4996902;28;20532;-48
2022/01/05 06:27:00;;;;;;;14.90;2.20;;;;;;;-143.35;100.00;58682.94;4996697;28;20461;-48
2022/01/05 06:29:25;;;;;;;9.07;2.58;;;;;;;-143.35;100.00;58682.94;4997623;28;20029;-48
2022/01/05 06:31:50;;;;;;;19.40;2.45;;;;;;;-143.35;100.00;58682.94;5012042;28;20400;-48
2022/01/05 06:34:16;;;;;;;17.35;3.42;;;;;;;-143.35;100.00;58682.94;5016015;28;20121;-48
2022/01/05 06:36:41;;;;;;;12.18;2.50;;;;;;;-143.35;100.00;58682.94;5016019;28;20033;-48
2022/01/05 06:39:07;;;;;;;8.85;1.95;;;;;;;-143.35;100.00;58682.94;5014350;28;20030;-48
2022/01/05 06:41:32;;;;;;;12.95;2.85;;;;;;;-143.35;100.00;58682.94;5015619;28;20048;-48
2022/01/05 06:43:57;;;;;;;15.27;2.15;;;;;;;-143.35;100.00;58682.94;5015929;28;20022;-48
2022/01/05 06:46:23;;;;;;;7.65;2.47;;;;;;;-143.35;100.00;58682.94;5015821;28;20092;-51
2022/01/05 06:48:48;;;;;;;11.00;2.40;;;;;;;-143.35;100.00;58682.94;5012602;28;20026;-51
2022/01/05 06:51:14;;;;;;;13.98;2.47;;;;;;;-143.35;100.00;58682.94;4996138;28;20029;-48
2022/01/05 06:53:40;;;;;;;7.45;2.05;;;;;;;-143.35;100.00;58682.94;4996103;28;20354;-51
2022/01/05 06:56:06;;;;;;;7.00;1.92;;;;;;;-143.35;100.00;58682.94;4996140;28;20033;-50
2022/01/05 06:58:31;;;;;;;9.57;2.35;;;;;;;-143.35;100.00;58682.94;4995639;28;20018;-50
2022/01/05 07:00:56;;;;;;;4.95;2.45;;;;;;;-143.35;100.00;58682.94;5015609;28;20030;-48
2022/01/05 07:03:22;;;;;;;9.27;2.90;;;;;;;-143.35;100.00;58682.94;5015659;28;20065;-48
2022/01/05 07:05:47;;;;;;;14.20;2.92;;;;;;;-143.35;100.00;58682.94;5015583;28;20051;-47
2022/01/05 07:08:13;;;;;;;8.85;2.38;;;;;;;-143.35;100.00;58682.94;5014692;28;20038;-47
2022/01/05 07:10:38;;;;;;;5.93;2.10;;;;;;;-143.35;100.00;58682.94;5015350;28;20376;-47
2022/01/05 07:13:03;;;;;;;12.75;2.30;;;;;;;-143.35;100.00;58682.94;5015476;28;20033;-47
2022/01/05 07:15:29;;;;;;;10.90;2.10;;;;;;;-143.35;100.00;58682.94;5015362;28;20026;-46
2022/01/05 07:17:54;;;;;;;10.30;3.53;;;;;;;-143.35;100.00;58682.94;5015361;28;20113;-50
2022/01/05 07:20:19;;;;;;;11.57;3.22;;;;;;;-143.35;100.00;58682.94;5014431;28;20022;-48
2022/01/05 07:22:45;;;;;;;15.20;2.60;;;;;;;-143.35;100.00;58682.94;5015213;28;20357;-48
2022/01/05 07:25:11;;;;;;;13.02;2.95;;;;;;;-143.35;100.00;58682.94;5015122;28;20100;-47
2022/01/05 07:27:37;;;;;;;13.27;2.83;;;;;;;-143.35;100.00;58682.94;5015254;28;20468;-48
2022/01/05 07:30:04;;;;;;;7.28;2.08;;;;;;;-143.35;100.00;58682.94;5013382;28;20033;-46
2022/01/05 07:32:30;;;;;;;6.93;3.08;;;;;;;-143.35;100.00;58682.94;5015002;28;20037;-47
2022/01/05 07:34:56;;;;;;;14.32;3.30;;;;;;;-143.35;100.00;58682.94;5015119;28;20125;-47
2022/01/05 07:37:22;;;;;;;9.80;2.40;;;;;;;-143.35;100.00;58682.94;5014248;28;20483;-47
2022/01/05 07:39:47;;;;;;;11.43;2.40;;;;;;;-143.35;100.00;58682.94;5014792;28;20021;-48
2022/01/05 07:42:13;;;;;;;17.58;3.08;;;;;;;-143.35;100.00;58682.94;5014611;28;20029;-46
2022/01/05 07:44:38;;;;;;;5.90;2.10;;;;;;;-143.35;100.00;58682.94;5014298;28;20108;-49
2022/01/05 07:47:05;;;;;;;7.80;2.60;;;;;;;-143.35;100.00;58682.94;5000822;28;20048;-48
2022/01/05 07:49:30;;;;;;;8.05;2.92;;;;;;;-143.35;100.00;58682.94;4995052;28;20030;-46
2022/01/05 07:51:55;;;;;;;13.23;2.65;;;;;;;-143.35;100.00;58682.94;4995053;28;20029;-48
2022/01/05 07:54:21;;;;;;;10.18;2.35;;;;;;;-143.35;100.00;58682.94;5002736;28;20540;-48
2022/01/05 07:56:46;;;;;;;8.43;2.70;;;;;;;-143.35;100.00;58682.94;5014689;28;20097;-47
2022/01/05 07:59:11;;;;;;;13.35;2.70;;;;;;;-143.35;100.00;58682.94;5014614;28;20087;-47
2022/01/05 08:01:37;;;;;;;13.15;2.92;;;;;;;-143.35;100.00;58682.94;5014514;28;20112;-48
2022/01/05 08:04:02;;;;;;;10.90;2.72;;;;;;;-143.35;100.00;58682.94;5014282;28;20049;-51
2022/01/05 08:06:28;;;;;;;15.23;2.35;;;;;;;-143.35;100.00;58682.94;5014438;28;20033;-49
2022/01/05 08:08:53;;;;;;;7.78;2.13;;;;;;;-143.35;100.00;58682.94;5014586;28;20022;-48
2022/01/05 08:11:19;;;;;;;10.77;2.42;;;;;;;-143.35;100.00;58682.94;5014441;28;20113;-48
2022/01/05 08:13:44;;;;;;;12.93;2.70;;;;;;;-143.35;100.00;58682.94;5012476;28;20052;-47
2022/01/05 08:16:10;;;;;;;17.05;2.65;;;;;;;-143.35;100.00;58682.94;5014428;28;20472;-48
2022/01/05 08:18:35;;;;;;;12.40;2.65;;;;;;;-143.35;100.00;58682.94;5014398;28;20456;-49
2022/01/05 08:21:01;;;;;;;6.45;2.40;;;;;;;-143.35;100.00;58682.94;5014369;28;20068;-48
2022/01/05 08:23:26;;;;;;;12.45;2.88;;;;;;;-143.35;100.00;58682.94;5006675;28;20520;-48
2022/01/05 08:25:52;;;;;;;9.00;2.63;;;;;;;-143.35;100.00;58682.94;4994611;28;20389;-48
2022/01/05 08:28:18;;;;;;;11.35;2.72;;;;;;;-143.35;100.00;58682.94;4994657;28;20528;-48
2022/01/05 08:30:45;;;;;;;6.75;2.10;;;;;;;-143.35;100.00;58682.94;5005994;28;20041;-48
2022/01/05 08:33:12;;;;;;;7.93;1.70;;;;;;;-143.35;100.00;58682.94;5014119;28;20558;-50
2022/01/05 08:35:38;;;;;;;16.50;2.50;;;;;;;-143.35;100.00;58682.94;5014268;28;20028;-50
2022/01/05 08:38:04;;;;;;;9.45;1.92;;;;;;;-143.35;100.00;58682.94;5014199;28;20442;-48
2022/01/05 08:40:31;;;;;;;22.63;3.17;;;;;;;-143.35;100.00;58682.94;5013340;28;20040;-50
2022/01/05 08:42:59;;;;;;;10.50;2.97;;;;;;;-143.35;100.00;58682.94;5014838;28;20470;-48
2022/01/05 08:45:25;;;;;;;11.77;2.90;;;;;;;-143.35;100.00;58682.94;5014260;28;20109;-48
2022/01/05 08:47:52;;;;;;;17.88;3.53;;;;;;;-143.35;100.00;58682.94;5013981;28;20046;-48
2022/01/05 08:50:24;;;;;;;18.08;2.28;;;;;;;-143.35;100.00;58682.94;5005522;28;20026;-48
2022/01/05 08:52:51;;;;;;;5.50;1.67;;;;;;;-143.35;100.00;58682.94;4994437;28;20077;-48
2022/01/05 08:55:19;;;;;;;12.15;2.20;;;;;;;-143.35;100.00;58682.94;4995216;28;20053;-47
2022/01/05 08:57:45;;;;;;;10.40;2.65;;;;;;;-143.35;100.00;58682.94;4999574;28;20081;-48
2022/01/05 09:00:11;;;;;;;13.60;2.65;;;;;;;-143.35;100.00;58682.94;5017912;28;20029;-48
2022/01/05 09:02:37;;;;;;;17.08;2.08;;;;;;;-143.35;100.00;58682.94;5017821;28;20168;-48
2022/01/05 09:05:04;;;;;;;8.88;2.13;;;;;;;-143.35;100.00;58682.94;5017882;28;20068;-48
2022/01/05 09:07:29;;;;;;;12.95;2.92;;;;;;;-143.35;100.00;58682.94;5017753;28;20034;-48
2022/01/05 09:09:54;;;;;;;10.52;2.22;;;;;;;-143.35;100.00;58682.94;4997408;28;20394;-48
2022/01/05 09:12:20;;;;;;;15.45;3.67;;;;;;;-143.35;100.00;58682.94;4998174;28;20022;-49
2022/01/05 09:14:45;;;;;;;11.93;2.13;;;;;;;-143.35;100.00;58682.94;4998203;28;20046;-48
2022/01/05 09:17:11;;;;;;;8.40;2.30;;;;;;;-143.35;100.00;58682.94;4998040;28;20470;-48
2022/01/05 09:19:36;;;;;;;9.38;1.75;;;;;;;-143.35;100.00;58682.94;4998089;28;20037;-48
2022/01/05 09:22:02;;;;;;;9.82;2.30;;;;;;;-143.35;100.00;58682.94;4998010;28;20022;-50
2022/01/05 09:24:28;;;;;;;9.55;1.98;;;;;;;-143.35;100.00;58682.94;4997717;28;20037;-48
2022/01/05 09:27:00;;;;;;;14.55;2.08;;;;;;;-143.35;100.00;58682.94;4998057;28;20026;-48
2022/01/05 09:29:25;;;;;;;8.80;1.58;;;;;;;-143.35;100.00;58682.94;4998095;28;20061;-49
2022/01/05 09:31:54;;;;;;;9.90;2.60;;;;;;;-143.35;100.00;58682.94;4997817;28;20437;-50
2022/01/05 09:34:20;;;;;;;8.82;1.85;;;;;;;-143.35;100.00;58682.94;4997713;28;20034;-48
2022/01/05 09:36:49;;;;;;;11.10;1.60;;;;;;;-143.35;100.00;58682.94;5005535;28;20025;-47
2022/01/05 09:42:01;;;;;;;16.98;2.05;;;;;;;-143.35;100.00;58682.94;5017533;28;20045;-46
2022/01/05 09:44:30;;;;;;;20.02;2.25;;;;;;;-143.35;100.00;58682.94;5017121;28;20388;-49
2022/01/05 09:47:13;;;;;;;7.82;1.58;;;;;;;-143.35;100.00;58682.94;5007198;28;20128;-49
2022/01/05 09:49:46;;;;;;;10.13;2.10;;;;;;;-143.35;100.00;58682.94;4997311;28;20026;-48
2022/01/05 09:52:13;;;;;;;14.90;2.40;;;;;;;-143.35;100.00;58682.94;4997377;28;20065;-49
2022/01/05 09:54:43;;;;;;;7.60;1.63;;;;;;;-143.35;100.00;58682.94;5001013;28;20026;-47
2022/01/05 09:57:12;;;;;;;10.23;2.42;;;;;;;-143.35;100.00;58682.94;5016762;28;20157;-50
2022/01/05 09:59:40;;;;;;;11.27;2.05;;;;;;;-143.35;100.00;58682.94;5016779;28;20022;-47
2022/01/05 10:02:06;;;;;;;12.88;1.65;;;;;;;-143.35;100.00;58682.94;5001097;28;20049;-50
2022/01/05 10:04:34;;;;;;;11.77;2.35;;;;;;;-143.35;100.00;58682.94;4997167;28;20030;-47
2022/01/05 10:06:59;;;;;;;12.02;2.13;;;;;;;-143.35;100.00;58682.94;4996499;28;20038;-47
2022/01/05 10:09:25;;;;;;;11.63;1.70;;;;;;;-143.35;100.00;58682.94;4996922;28;20022;-51
2022/01/05 10:11:50;;;;;;;8.13;1.55;;;;;;;-143.35;100.00;58682.94;4996847;28;20081;-50
2022/01/05 10:14:16;;;;;;;5.50;1.75;;;;;;;-143.35;100.00;58682.94;4997405;28;20026;-48
2022/01/05 10:16:58;;;;;;;14.25;2.20;;;;;;;-143.35;100.00;58682.94;5015175;28;20037;-49
2022/01/05 10:19:24;;;;;;;10.75;2.50;;;;;;;-143.35;100.00;58682.94;4997053;28;20030;-49
2022/01/05 10:21:50;;;;;;;11.52;2.17;;;;;;;-143.35;100.00;58682.94;4996696;28;20034;-48
2022/01/05 10:24:16;;;;;;;8.32;1.98;;;;;;;-143.35;100.00;58682.94;4996574;28;20030;-48
2022/01/05 10:26:41;;;;;;;10.35;2.53;;;;;;;-143.35;100.00;58682.94;4977207;28;20043;-47
2022/01/05 10:29:14;;;;;;;14.13;2.38;;;;;;;-143.35;100.00;58682.94;4984664;28;20078;-46
2022/01/05 10:31:41;;;;;;;17.52;2.63;;;;;;;-143.35;100.00;58682.94;4997083;28;20361;-47
2022/01/05 10:34:14;;;;;;;15.70;2.50;;;;;;;-143.35;100.00;58682.94;4997409;28;20573;-47
2022/01/05 10:36:57;;;;;;;13.57;3.00;;;;;;;-143.35;100.00;58682.94;5018272;28;20030;-47
2022/01/05 10:39:30;;;;;;;7.25;2.00;;;;;;;-143.35;100.00;58682.94;4982558;28;20535;-47
2022/01/05 10:41:56;;;;;;;14.25;2.17;;;;;;;-143.35;100.00;58682.94;4996586;28;20034;-47
2022/01/05 10:44:24;;;;;;;11.05;2.58;;;;;;;-143.35;100.00;58682.94;4999042;28;20030;-46
2022/01/05 10:46:52;;;;;;;7.03;2.63;;;;;;;-143.35;100.00;58682.94;4999792;28;20038;-47
2022/01/05 10:49:34;;;;;;;13.30;2.05;;;;;;;-143.35;100.00;58682.94;4996494;28;20125;-47
2022/01/05 10:52:20;;;;;;;20.55;2.65;;;;;;;-143.35;100.00;58682.94;4996461;28;20079;-47
2022/01/05 10:54:46;;;;;;;14.63;2.35;;;;;;;-143.35;100.00;58682.94;4996174;28;20030;-47
2022/01/05 10:57:13;;;;;;;12.63;2.30;;;;;;;-143.35;100.00;58682.94;4996528;28;20026;-48
2022/01/05 10:59:42;;;;;;;11.63;2.75;;;;;;;-143.35;100.00;58682.94;4996471;28;20092;-47
2022/01/05 11:02:26;;;;;;;18.33;3.03;;;;;;;-143.35;100.00;58682.94;4996172;28;20041;-48